PAY3236 EHBK-HECA
Flight info
| Callsign | PAY3236 |
|---|---|
| Flight time | 3h 42m |
| Altitude | 37000 |
| Route | LNO N852 DIK M150 PITES DCT EDISA DCT KUNOD DCT IRBIR DCT UMVEG DCT VEKEN DCT RETRA DCT MAVAR/N0443F370 DCT BITLA DCT KPC UN139 KUMBI L612 BLT A16 CVO |
| Aircraft | A21N/M-SDE2E3FGHIRWXYZ/LB1 |
Departure
| Time | 2026-05-07 16:51 |
|---|---|
| Airport | Maastricht Aachen Airport (EHBK) |
Arrival
| Time | 2026-05-07 20:33 |
|---|---|
| Airport | Cairo International Airport (HECA) |
| Time | Latitude | Longitude | Altitude | Speed | Heading |
|---|---|---|---|---|---|
| 2026-05-07 16:43 | 50.92200 | 5.77594 | 375 ft | 0 kts | 303° |
| 2026-05-07 16:44 | 50.92189 | 5.77622 | 375 ft | 3 kts | 303° |
| 2026-05-07 16:44 | 50.92173 | 5.77655 | 375 ft | 3 kts | 314° |
| 2026-05-07 16:45 | 50.92152 | 5.77666 | 376 ft | 3 kts | 7° |
| 2026-05-07 16:45 | 50.92139 | 5.77657 | 376 ft | 0 kts | 36° |
| 2026-05-07 16:47 | 50.92141 | 5.77660 | 376 ft | 0 kts | 36° |
| 2026-05-07 16:47 | 50.92144 | 5.77664 | 376 ft | 1 kts | 36° |
| 2026-05-07 16:47 | 50.92146 | 5.77666 | 376 ft | 0 kts | 40° |
| 2026-05-07 16:48 | 50.92150 | 5.77673 | 376 ft | 1 kts | 60° |
| 2026-05-07 16:48 | 50.92151 | 5.77694 | 376 ft | 2 kts | 92° |
| 2026-05-07 16:48 | 50.92139 | 5.77734 | 375 ft | 4 kts | 119° |
| 2026-05-07 16:48 | 50.92119 | 5.77786 | 375 ft | 6 kts | 123° |
| 2026-05-07 16:49 | 50.92094 | 5.77844 | 375 ft | 6 kts | 126° |
| 2026-05-07 16:49 | 50.92057 | 5.77883 | 375 ft | 6 kts | 181° |
| 2026-05-07 16:49 | 50.92030 | 5.77872 | 376 ft | 0 kts | 210° |
| 2026-05-07 16:49 | 50.92029 | 5.77871 | 376 ft | 0 kts | 210° |
| 2026-05-07 16:50 | 50.91941 | 5.77787 | 377 ft | 49 kts | 212° |
| 2026-05-07 16:50 | 50.91415 | 5.77243 | 379 ft | 128 kts | 214° |
| 2026-05-07 16:50 | 50.90484 | 5.76297 | 404 ft | 187 kts | 213° |
| 2026-05-07 16:50 | 50.89281 | 5.75119 | 807 ft | 213 kts | 211° |
| 2026-05-07 16:51 | 50.87974 | 5.73948 | 1399 ft | 238 kts | 204° |
| 2026-05-07 16:51 | 50.86346 | 5.73467 | 2521 ft | 237 kts | 179° |
| 2026-05-07 16:51 | 50.84703 | 5.73533 | 3405 ft | 245 kts | 177° |
| 2026-05-07 16:51 | 50.82934 | 5.73583 | 4040 ft | 260 kts | 177° |
| 2026-05-07 16:52 | 50.81089 | 5.73527 | 4757 ft | 272 kts | 182° |
| 2026-05-07 16:52 | 50.79215 | 5.73380 | 5622 ft | 276 kts | 183° |
| 2026-05-07 16:52 | 50.77317 | 5.73187 | 6510 ft | 278 kts | 184° |
| 2026-05-07 16:52 | 50.75392 | 5.72973 | 7378 ft | 281 kts | 184° |
| 2026-05-07 16:53 | 50.73446 | 5.72748 | 8217 ft | 283 kts | 185° |
| 2026-05-07 16:53 | 50.71466 | 5.72515 | 9044 ft | 286 kts | 185° |
| 2026-05-07 16:53 | 50.69496 | 5.72282 | 9859 ft | 288 kts | 185° |
| 2026-05-07 16:53 | 50.67495 | 5.72221 | 10572 ft | 294 kts | 172° |
| 2026-05-07 16:54 | 50.65549 | 5.73333 | 10978 ft | 311 kts | 153° |
| 2026-05-07 16:54 | 50.63640 | 5.75111 | 11351 ft | 328 kts | 149° |
| 2026-05-07 16:54 | 50.61655 | 5.77076 | 11666 ft | 346 kts | 146° |
| 2026-05-07 16:54 | 50.59872 | 5.79794 | 11957 ft | 363 kts | 130° |
| 2026-05-07 16:55 | 50.58299 | 5.82960 | 12277 ft | 380 kts | 128° |
| 2026-05-07 16:55 | 50.56659 | 5.86364 | 12561 ft | 395 kts | 128° |
| 2026-05-07 16:55 | 50.54948 | 5.89849 | 12876 ft | 409 kts | 129° |
| 2026-05-07 16:55 | 50.53635 | 5.92474 | 13268 ft | 414 kts | 129° |
| 2026-05-07 16:56 | 50.51844 | 5.96007 | 13887 ft | 417 kts | 129° |
| 2026-05-07 16:56 | 50.50002 | 5.99599 | 14483 ft | 421 kts | 130° |
| 2026-05-07 16:56 | 50.46298 | 6.06750 | 15654 ft | 428 kts | 130° |
| 2026-05-07 16:57 | 50.44402 | 6.10390 | 16223 ft | 431 kts | 130° |
| 2026-05-07 16:57 | 50.42505 | 6.14021 | 16762 ft | 435 kts | 130° |
| 2026-05-07 16:57 | 50.40584 | 6.17692 | 17288 ft | 438 kts | 130° |
| 2026-05-07 16:57 | 50.38646 | 6.21389 | 17807 ft | 441 kts | 130° |
| 2026-05-07 16:58 | 50.36684 | 6.25127 | 18306 ft | 444 kts | 130° |
| 2026-05-07 16:58 | 50.34713 | 6.28877 | 18798 ft | 448 kts | 130° |
| 2026-05-07 16:58 | 50.32739 | 6.32626 | 19279 ft | 451 kts | 130° |
| 2026-05-07 16:58 | 50.30743 | 6.36412 | 19745 ft | 454 kts | 130° |
| 2026-05-07 16:59 | 50.28732 | 6.40221 | 20198 ft | 457 kts | 130° |
| 2026-05-07 16:59 | 50.26679 | 6.44103 | 20656 ft | 460 kts | 130° |
| 2026-05-07 16:59 | 50.24636 | 6.47960 | 21076 ft | 463 kts | 130° |
| 2026-05-07 16:59 | 50.22586 | 6.51824 | 21496 ft | 466 kts | 130° |
| 2026-05-07 17:00 | 50.20503 | 6.55743 | 21909 ft | 468 kts | 130° |
| 2026-05-07 17:00 | 50.18433 | 6.59635 | 22284 ft | 471 kts | 130° |
| 2026-05-07 17:00 | 50.16331 | 6.63579 | 22663 ft | 474 kts | 131° |
| 2026-05-07 17:00 | 50.14360 | 6.67274 | 23017 ft | 476 kts | 131° |
| 2026-05-07 17:01 | 50.12246 | 6.71230 | 23400 ft | 479 kts | 131° |
| 2026-05-07 17:01 | 50.10109 | 6.75223 | 23828 ft | 480 kts | 131° |
| 2026-05-07 17:01 | 50.07964 | 6.79225 | 24355 ft | 478 kts | 131° |
| 2026-05-07 17:01 | 50.05849 | 6.83164 | 24882 ft | 477 kts | 131° |
| 2026-05-07 17:02 | 50.03735 | 6.87098 | 25379 ft | 476 kts | 131° |
| 2026-05-07 17:02 | 50.01595 | 6.91071 | 25838 ft | 475 kts | 131° |
| 2026-05-07 17:02 | 49.99473 | 6.95008 | 26288 ft | 475 kts | 131° |
| 2026-05-07 17:02 | 49.97354 | 6.98934 | 26725 ft | 474 kts | 131° |
| 2026-05-07 17:03 | 49.95260 | 7.02806 | 27149 ft | 473 kts | 131° |
| 2026-05-07 17:03 | 49.93168 | 7.06668 | 27584 ft | 473 kts | 131° |
| 2026-05-07 17:03 | 49.91028 | 7.10613 | 28017 ft | 472 kts | 131° |
| 2026-05-07 17:03 | 49.89063 | 7.14230 | 28414 ft | 471 kts | 130° |
| 2026-05-07 17:04 | 49.86965 | 7.18088 | 28815 ft | 470 kts | 130° |
| 2026-05-07 17:04 | 49.84835 | 7.22000 | 29214 ft | 470 kts | 130° |
| 2026-05-07 17:04 | 49.82741 | 7.25840 | 29597 ft | 469 kts | 130° |
| 2026-05-07 17:04 | 49.80615 | 7.29732 | 29998 ft | 468 kts | 130° |
| 2026-05-07 17:05 | 49.78527 | 7.33549 | 30395 ft | 467 kts | 130° |
| 2026-05-07 17:05 | 49.76424 | 7.37389 | 30769 ft | 466 kts | 130° |
| 2026-05-07 17:05 | 49.74335 | 7.41196 | 31094 ft | 466 kts | 130° |
| 2026-05-07 17:05 | 49.72244 | 7.45001 | 31403 ft | 465 kts | 130° |
| 2026-05-07 17:06 | 49.70134 | 7.48837 | 31691 ft | 465 kts | 130° |
| 2026-05-07 17:06 | 49.68058 | 7.52603 | 31969 ft | 465 kts | 130° |
| 2026-05-07 17:06 | 49.65951 | 7.56419 | 32244 ft | 464 kts | 130° |
| 2026-05-07 17:06 | 49.63876 | 7.60174 | 32502 ft | 464 kts | 130° |
| 2026-05-07 17:07 | 49.61768 | 7.63983 | 32754 ft | 464 kts | 130° |
| 2026-05-07 17:07 | 49.59950 | 7.67263 | 32970 ft | 464 kts | 131° |
| 2026-05-07 17:07 | 49.57967 | 7.70836 | 33186 ft | 464 kts | 131° |
| 2026-05-07 17:07 | 49.55880 | 7.74590 | 33410 ft | 464 kts | 131° |
| 2026-05-07 17:08 | 49.53760 | 7.78397 | 33635 ft | 464 kts | 131° |
| 2026-05-07 17:08 | 49.51683 | 7.82124 | 33850 ft | 463 kts | 131° |
| 2026-05-07 17:08 | 49.49566 | 7.85915 | 34049 ft | 464 kts | 131° |
| 2026-05-07 17:08 | 49.47470 | 7.89663 | 34225 ft | 463 kts | 131° |
| 2026-05-07 17:09 | 49.45375 | 7.93405 | 34384 ft | 463 kts | 131° |
| 2026-05-07 17:09 | 49.43282 | 7.97137 | 34540 ft | 464 kts | 131° |
| 2026-05-07 17:09 | 49.41165 | 8.00908 | 34690 ft | 464 kts | 131° |
| 2026-05-07 17:09 | 49.39069 | 8.04637 | 34836 ft | 464 kts | 131° |
| 2026-05-07 17:10 | 49.36980 | 8.08348 | 34988 ft | 463 kts | 131° |
| 2026-05-07 17:10 | 49.34856 | 8.12116 | 35149 ft | 463 kts | 131° |
| 2026-05-07 17:10 | 49.32756 | 8.15835 | 35289 ft | 463 kts | 132° |
| 2026-05-07 17:10 | 49.30642 | 8.19574 | 35400 ft | 464 kts | 132° |
| 2026-05-07 17:11 | 49.28528 | 8.23305 | 35507 ft | 464 kts | 132° |
| 2026-05-07 17:11 | 49.26390 | 8.27074 | 35633 ft | 465 kts | 132° |
| 2026-05-07 17:11 | 49.22158 | 8.34517 | 35827 ft | 466 kts | 132° |
| 2026-05-07 17:12 | 49.17918 | 8.41958 | 36004 ft | 467 kts | 132° |
| 2026-05-07 17:12 | 49.13623 | 8.49468 | 36193 ft | 468 kts | 132° |
| 2026-05-07 17:13 | 49.09357 | 8.56909 | 36367 ft | 468 kts | 133° |
| 2026-05-07 17:13 | 49.05074 | 8.64358 | 36520 ft | 469 kts | 133° |
| 2026-05-07 17:14 | 49.01277 | 8.70944 | 36623 ft | 470 kts | 133° |
| 2026-05-07 17:14 | 48.96949 | 8.78432 | 36745 ft | 471 kts | 134° |
| 2026-05-07 17:15 | 48.92656 | 8.85837 | 36841 ft | 472 kts | 134° |
| 2026-05-07 17:15 | 48.88406 | 8.93149 | 36968 ft | 472 kts | 134° |
| 2026-05-07 17:16 | 48.84121 | 9.00501 | 36998 ft | 473 kts | 134° |
| 2026-05-07 17:16 | 48.79715 | 9.08037 | 36999 ft | 474 kts | 134° |
| 2026-05-07 17:17 | 48.75351 | 9.15478 | 37006 ft | 475 kts | 134° |
| 2026-05-07 17:17 | 48.70958 | 9.22950 | 37015 ft | 475 kts | 134° |
| 2026-05-07 17:18 | 48.66591 | 9.30359 | 37020 ft | 476 kts | 133° |
| 2026-05-07 17:18 | 48.62534 | 9.38331 | 37022 ft | 477 kts | 127° |
| 2026-05-07 17:19 | 48.58708 | 9.46438 | 37009 ft | 477 kts | 127° |
| 2026-05-07 17:19 | 48.54833 | 9.54573 | 37002 ft | 477 kts | 128° |
| 2026-05-07 17:20 | 48.50936 | 9.62672 | 36998 ft | 477 kts | 128° |
| 2026-05-07 17:20 | 48.47166 | 9.70463 | 36998 ft | 478 kts | 128° |
| 2026-05-07 17:21 | 48.43274 | 9.78475 | 36999 ft | 478 kts | 128° |
| 2026-05-07 17:21 | 48.39329 | 9.86573 | 37005 ft | 478 kts | 128° |
| 2026-05-07 17:22 | 48.35395 | 9.94623 | 37008 ft | 478 kts | 129° |
| 2026-05-07 17:22 | 48.31457 | 10.02657 | 37007 ft | 479 kts | 129° |
| 2026-05-07 17:23 | 48.27619 | 10.10465 | 37020 ft | 479 kts | 129° |
| 2026-05-07 17:23 | 48.23599 | 10.18616 | 37019 ft | 479 kts | 129° |
| 2026-05-07 17:24 | 48.19639 | 10.26622 | 37024 ft | 479 kts | 129° |
| 2026-05-07 17:24 | 48.15685 | 10.34595 | 37017 ft | 480 kts | 129° |
| 2026-05-07 17:25 | 48.11693 | 10.42620 | 37018 ft | 480 kts | 129° |
| 2026-05-07 17:25 | 48.07734 | 10.50554 | 37024 ft | 480 kts | 129° |
| 2026-05-07 17:26 | 48.03759 | 10.58499 | 37020 ft | 480 kts | 129° |
| 2026-05-07 17:26 | 47.99858 | 10.66274 | 37017 ft | 479 kts | 130° |
| 2026-05-07 17:27 | 47.95871 | 10.74200 | 37025 ft | 479 kts | 130° |
| 2026-05-07 17:27 | 47.91895 | 10.82075 | 37024 ft | 479 kts | 130° |
| 2026-05-07 17:28 | 47.88090 | 10.89591 | 37033 ft | 480 kts | 130° |
| 2026-05-07 17:28 | 47.84036 | 10.97577 | 37027 ft | 480 kts | 130° |
| 2026-05-07 17:29 | 47.80027 | 11.05450 | 37031 ft | 481 kts | 130° |
| 2026-05-07 17:29 | 47.76082 | 11.13180 | 37031 ft | 481 kts | 130° |
| 2026-05-07 17:30 | 47.72049 | 11.21055 | 37032 ft | 480 kts | 130° |
| 2026-05-07 17:30 | 47.68035 | 11.28873 | 37032 ft | 480 kts | 130° |
| 2026-05-07 17:31 | 47.64005 | 11.36698 | 37036 ft | 480 kts | 130° |
| 2026-05-07 17:31 | 47.59938 | 11.44573 | 37039 ft | 481 kts | 130° |
| 2026-05-07 17:32 | 47.55863 | 11.52442 | 37037 ft | 482 kts | 130° |
| 2026-05-07 17:32 | 47.51768 | 11.60327 | 37040 ft | 482 kts | 130° |
| 2026-05-07 17:33 | 47.47742 | 11.68055 | 37030 ft | 481 kts | 131° |
| 2026-05-07 17:33 | 47.43757 | 11.75685 | 37038 ft | 481 kts | 131° |
| 2026-05-07 17:34 | 47.39664 | 11.83497 | 37038 ft | 482 kts | 131° |
| 2026-05-07 17:34 | 47.35574 | 11.91284 | 37042 ft | 482 kts | 131° |
| 2026-05-07 17:35 | 47.31469 | 11.99074 | 37038 ft | 483 kts | 131° |
| 2026-05-07 17:35 | 47.27341 | 12.06887 | 37033 ft | 484 kts | 131° |
| 2026-05-07 17:36 | 47.23199 | 12.14705 | 37036 ft | 484 kts | 131° |
| 2026-05-07 17:36 | 47.19069 | 12.22481 | 37054 ft | 484 kts | 131° |
| 2026-05-07 17:37 | 47.14930 | 12.30249 | 37053 ft | 483 kts | 131° |
| 2026-05-07 17:37 | 47.10791 | 12.37995 | 37052 ft | 484 kts | 132° |
| 2026-05-07 17:38 | 47.06647 | 12.45725 | 37052 ft | 484 kts | 132° |
| 2026-05-07 17:38 | 47.02488 | 12.53466 | 37062 ft | 485 kts | 132° |
| 2026-05-07 17:39 | 46.98329 | 12.61184 | 37055 ft | 485 kts | 132° |
| 2026-05-07 17:39 | 46.94136 | 12.68949 | 37027 ft | 485 kts | 133° |
| 2026-05-07 17:40 | 46.89971 | 12.76636 | 37008 ft | 484 kts | 133° |
| 2026-05-07 17:40 | 46.85818 | 12.84278 | 36997 ft | 483 kts | 133° |
| 2026-05-07 17:41 | 46.81740 | 12.91773 | 37008 ft | 469 kts | 133° |
| 2026-05-07 17:41 | 46.77761 | 12.99066 | 37031 ft | 455 kts | 133° |
| 2026-05-07 17:42 | 46.73833 | 13.06235 | 37054 ft | 453 kts | 133° |
| 2026-05-07 17:42 | 46.69878 | 13.13429 | 37056 ft | 459 kts | 133° |
| 2026-05-07 17:43 | 46.65860 | 13.20725 | 37051 ft | 467 kts | 133° |
| 2026-05-07 17:43 | 46.61787 | 13.28112 | 37060 ft | 474 kts | 133° |
| 2026-05-07 17:44 | 46.57621 | 13.35630 | 37045 ft | 480 kts | 134° |
| 2026-05-07 17:44 | 46.53160 | 13.42830 | 37050 ft | 482 kts | 138° |
| 2026-05-07 17:45 | 46.48510 | 13.49930 | 37043 ft | 487 kts | 138° |
| 2026-05-07 17:45 | 46.43835 | 13.57059 | 37040 ft | 490 kts | 138° |
| 2026-05-07 17:46 | 46.39147 | 13.64200 | 37039 ft | 492 kts | 138° |
| 2026-05-07 17:46 | 46.34575 | 13.71155 | 37031 ft | 492 kts | 139° |
| 2026-05-07 17:47 | 46.29985 | 13.78113 | 37022 ft | 492 kts | 139° |
| 2026-05-07 17:47 | 46.25261 | 13.85260 | 37017 ft | 491 kts | 139° |
| 2026-05-07 17:48 | 46.20545 | 13.92371 | 37042 ft | 491 kts | 139° |
| 2026-05-07 17:48 | 46.18179 | 13.95935 | 36898 ft | 491 kts | 139° |
| 2026-05-07 17:48 | 46.15792 | 13.99523 | 36979 ft | 491 kts | 139° |
| 2026-05-07 17:49 | 46.11073 | 14.06600 | 37019 ft | 493 kts | 139° |
| 2026-05-07 17:49 | 46.06313 | 14.13722 | 37009 ft | 493 kts | 139° |
| 2026-05-07 17:50 | 46.01554 | 14.20824 | 37018 ft | 493 kts | 139° |
| 2026-05-07 17:50 | 45.96817 | 14.27876 | 37005 ft | 492 kts | 139° |
| 2026-05-07 17:51 | 45.92070 | 14.34923 | 37014 ft | 493 kts | 139° |
| 2026-05-07 17:51 | 45.87322 | 14.41952 | 37005 ft | 492 kts | 139° |
| 2026-05-07 17:52 | 45.82539 | 14.49019 | 37007 ft | 492 kts | 139° |
| 2026-05-07 17:52 | 45.77765 | 14.56050 | 37014 ft | 492 kts | 139° |
| 2026-05-07 17:53 | 45.73013 | 14.63034 | 37005 ft | 491 kts | 140° |
| 2026-05-07 17:53 | 45.68375 | 14.69826 | 37008 ft | 491 kts | 140° |
| 2026-05-07 17:54 | 45.63706 | 14.76649 | 37004 ft | 492 kts | 140° |
| 2026-05-07 17:54 | 45.58912 | 14.83641 | 37009 ft | 491 kts | 140° |
| 2026-05-07 17:55 | 45.54158 | 14.90554 | 37003 ft | 491 kts | 140° |
| 2026-05-07 17:55 | 45.49382 | 14.97480 | 37005 ft | 491 kts | 141° |
| 2026-05-07 17:56 | 45.44589 | 15.04414 | 37015 ft | 490 kts | 141° |
| 2026-05-07 17:56 | 45.39804 | 15.11319 | 37005 ft | 489 kts | 141° |
| 2026-05-07 17:57 | 45.35840 | 15.17024 | 37004 ft | 490 kts | 141° |
| 2026-05-07 17:57 | 45.30248 | 15.25050 | 37010 ft | 490 kts | 140° |
| 2026-05-07 17:58 | 45.25461 | 15.31907 | 37014 ft | 490 kts | 140° |
| 2026-05-07 17:58 | 45.20666 | 15.38756 | 37013 ft | 490 kts | 140° |
| 2026-05-07 17:59 | 45.15870 | 15.45590 | 37017 ft | 490 kts | 140° |
| 2026-05-07 17:59 | 45.11068 | 15.52415 | 37017 ft | 489 kts | 140° |
| 2026-05-07 18:00 | 45.06254 | 15.59238 | 37022 ft | 489 kts | 140° |
| 2026-05-07 18:00 | 45.01482 | 15.65983 | 37023 ft | 488 kts | 141° |
| 2026-05-07 18:01 | 44.96798 | 15.72591 | 37018 ft | 488 kts | 141° |
| 2026-05-07 18:01 | 44.92062 | 15.79253 | 37016 ft | 488 kts | 141° |
| 2026-05-07 18:02 | 44.84902 | 15.89296 | 37021 ft | 489 kts | 141° |
| 2026-05-07 18:03 | 44.80077 | 15.96045 | 37031 ft | 489 kts | 141° |
| 2026-05-07 18:03 | 44.75239 | 16.02794 | 37037 ft | 490 kts | 141° |
| 2026-05-07 18:04 | 44.70368 | 16.09570 | 37040 ft | 490 kts | 141° |
| 2026-05-07 18:04 | 44.65531 | 16.16281 | 37053 ft | 491 kts | 141° |
| 2026-05-07 18:05 | 44.60665 | 16.23018 | 37056 ft | 490 kts | 141° |
| 2026-05-07 18:05 | 44.55824 | 16.29704 | 37055 ft | 491 kts | 141° |
| 2026-05-07 18:06 | 44.50944 | 16.36425 | 37057 ft | 491 kts | 141° |
| 2026-05-07 18:06 | 44.46069 | 16.43126 | 37057 ft | 491 kts | 141° |
| 2026-05-07 18:07 | 44.41204 | 16.49791 | 37059 ft | 491 kts | 141° |
| 2026-05-07 18:07 | 44.36331 | 16.56455 | 37059 ft | 491 kts | 141° |
| 2026-05-07 18:08 | 44.31439 | 16.63127 | 37053 ft | 492 kts | 141° |
| 2026-05-07 18:08 | 44.26570 | 16.69756 | 37062 ft | 492 kts | 142° |
| 2026-05-07 18:09 | 44.21667 | 16.76406 | 37074 ft | 493 kts | 142° |
| 2026-05-07 18:09 | 44.16735 | 16.83083 | 37069 ft | 493 kts | 142° |
| 2026-05-07 18:10 | 44.11856 | 16.89675 | 37068 ft | 493 kts | 142° |
| 2026-05-07 18:10 | 44.06926 | 16.96320 | 37082 ft | 493 kts | 142° |
| 2026-05-07 18:11 | 44.01977 | 17.02972 | 37074 ft | 494 kts | 142° |
| 2026-05-07 18:11 | 43.97062 | 17.09561 | 37058 ft | 494 kts | 142° |
| 2026-05-07 18:12 | 43.92109 | 17.16188 | 37069 ft | 495 kts | 142° |
| 2026-05-07 18:12 | 43.87131 | 17.22830 | 37075 ft | 497 kts | 142° |
| 2026-05-07 18:13 | 43.82141 | 17.29472 | 37073 ft | 496 kts | 142° |
| 2026-05-07 18:13 | 43.77173 | 17.36069 | 37062 ft | 497 kts | 142° |
| 2026-05-07 18:14 | 43.72115 | 17.42768 | 37063 ft | 497 kts | 142° |
| 2026-05-07 18:14 | 43.67127 | 17.49359 | 37068 ft | 498 kts | 142° |
| 2026-05-07 18:15 | 43.62096 | 17.55991 | 37066 ft | 498 kts | 142° |
| 2026-05-07 18:15 | 43.57079 | 17.62589 | 37073 ft | 499 kts | 142° |
| 2026-05-07 18:16 | 43.52213 | 17.68973 | 37069 ft | 499 kts | 143° |
| 2026-05-07 18:16 | 43.47165 | 17.75579 | 37067 ft | 500 kts | 143° |
| 2026-05-07 18:17 | 43.42121 | 17.82164 | 37067 ft | 501 kts | 143° |
| 2026-05-07 18:17 | 43.37075 | 17.88736 | 37075 ft | 502 kts | 143° |
| 2026-05-07 18:17 | 43.34523 | 17.92051 | 37220 ft | 502 kts | 143° |
| 2026-05-07 18:18 | 43.32006 | 17.95322 | 37138 ft | 501 kts | 143° |
| 2026-05-07 18:18 | 43.26949 | 18.01882 | 37096 ft | 502 kts | 143° |
| 2026-05-07 18:19 | 43.21847 | 18.08478 | 37100 ft | 503 kts | 143° |
| 2026-05-07 18:19 | 43.16752 | 18.15056 | 36825 ft | 503 kts | 143° |
| 2026-05-07 18:19 | 43.14230 | 18.18304 | 37003 ft | 502 kts | 143° |
| 2026-05-07 18:20 | 43.11686 | 18.21577 | 37070 ft | 502 kts | 143° |
| 2026-05-07 18:20 | 43.06572 | 18.28136 | 37119 ft | 506 kts | 143° |
| 2026-05-07 18:21 | 43.01445 | 18.34701 | 37107 ft | 510 kts | 143° |
| 2026-05-07 18:21 | 42.96251 | 18.41344 | 37102 ft | 514 kts | 142° |
| 2026-05-07 18:22 | 42.91545 | 18.48825 | 37132 ft | 522 kts | 134° |
| 2026-05-07 18:22 | 42.87082 | 18.56547 | 37121 ft | 525 kts | 134° |
| 2026-05-07 18:23 | 42.82524 | 18.64351 | 37122 ft | 526 kts | 135° |
| 2026-05-07 18:23 | 42.77965 | 18.72060 | 37121 ft | 524 kts | 136° |
| 2026-05-07 18:24 | 42.73364 | 18.79781 | 37109 ft | 525 kts | 135° |
| 2026-05-07 18:24 | 42.68737 | 18.87526 | 37129 ft | 527 kts | 135° |
| 2026-05-07 18:25 | 42.64112 | 18.95251 | 37128 ft | 528 kts | 135° |
| 2026-05-07 18:25 | 42.59459 | 19.03000 | 37089 ft | 529 kts | 135° |
| 2026-05-07 18:26 | 42.54800 | 19.10744 | 37097 ft | 531 kts | 135° |
| 2026-05-07 18:26 | 42.50138 | 19.18471 | 37078 ft | 530 kts | 135° |
| 2026-05-07 18:26 | 42.47769 | 19.22378 | 37240 ft | 532 kts | 135° |
| 2026-05-07 18:27 | 42.45465 | 19.26192 | 37129 ft | 530 kts | 135° |
| 2026-05-07 18:27 | 42.40775 | 19.33923 | 37076 ft | 530 kts | 135° |
| 2026-05-07 18:28 | 42.36090 | 19.41623 | 37085 ft | 532 kts | 135° |
| 2026-05-07 18:28 | 42.31359 | 19.49375 | 37082 ft | 533 kts | 135° |
| 2026-05-07 18:29 | 42.26643 | 19.57088 | 37087 ft | 536 kts | 135° |
| 2026-05-07 18:29 | 42.21885 | 19.64850 | 37090 ft | 536 kts | 135° |
| 2026-05-07 18:30 | 42.17131 | 19.72575 | 37092 ft | 538 kts | 135° |
| 2026-05-07 18:30 | 42.12394 | 19.80354 | 37095 ft | 535 kts | 135° |
| 2026-05-07 18:31 | 42.07739 | 19.88165 | 37152 ft | 537 kts | 134° |
| 2026-05-07 18:31 | 42.03140 | 19.96062 | 37298 ft | 536 kts | 134° |
| 2026-05-07 18:31 | 42.00854 | 20.00052 | 37413 ft | 536 kts | 133° |
| 2026-05-07 18:32 | 41.98620 | 20.03998 | 37517 ft | 536 kts | 133° |
| 2026-05-07 18:32 | 41.96382 | 20.07993 | 37656 ft | 535 kts | 133° |
| 2026-05-07 18:32 | 41.94159 | 20.12009 | 37779 ft | 535 kts | 133° |
| 2026-05-07 18:32 | 41.91948 | 20.16047 | 37910 ft | 535 kts | 131° |
| 2026-05-07 18:33 | 41.89751 | 20.20106 | 38043 ft | 535 kts | 131° |
| 2026-05-07 18:33 | 41.87609 | 20.24106 | 38181 ft | 535 kts | 130° |
| 2026-05-07 18:33 | 41.85499 | 20.28093 | 38339 ft | 535 kts | 130° |
| 2026-05-07 18:33 | 41.83355 | 20.32191 | 38505 ft | 535 kts | 130° |
| 2026-05-07 18:34 | 41.81112 | 20.36153 | 38500 ft | 530 kts | 139° |
| 2026-05-07 18:34 | 41.78440 | 20.39470 | 38292 ft | 522 kts | 152° |
| 2026-05-07 18:34 | 41.75415 | 20.42073 | 38006 ft | 519 kts | 158° |
| 2026-05-07 18:34 | 41.72391 | 20.44890 | 37776 ft | 531 kts | 148° |
| 2026-05-07 18:35 | 41.69722 | 20.48276 | 37540 ft | 537 kts | 141° |
| 2026-05-07 18:35 | 41.67087 | 20.51898 | 37228 ft | 539 kts | 141° |
| 2026-05-07 18:35 | 41.64413 | 20.55345 | 37136 ft | 534 kts | 143° |
| 2026-05-07 18:36 | 41.58722 | 20.61705 | 37131 ft | 532 kts | 148° |
| 2026-05-07 18:36 | 41.52982 | 20.67786 | 37125 ft | 532 kts | 150° |
| 2026-05-07 18:37 | 41.47147 | 20.73918 | 37131 ft | 532 kts | 149° |
| 2026-05-07 18:37 | 41.41335 | 20.80007 | 37124 ft | 532 kts | 150° |
| 2026-05-07 18:38 | 41.35495 | 20.86121 | 37119 ft | 534 kts | 149° |
| 2026-05-07 18:38 | 41.29618 | 20.92257 | 37135 ft | 536 kts | 150° |
| 2026-05-07 18:39 | 41.23751 | 20.98369 | 37133 ft | 537 kts | 149° |
| 2026-05-07 18:39 | 41.17825 | 21.04529 | 37138 ft | 541 kts | 149° |
| 2026-05-07 18:40 | 41.11951 | 21.10636 | 37137 ft | 540 kts | 149° |
| 2026-05-07 18:40 | 41.05981 | 21.16805 | 37134 ft | 543 kts | 149° |
| 2026-05-07 18:41 | 41.00032 | 21.22964 | 37129 ft | 540 kts | 149° |
| 2026-05-07 18:41 | 40.94048 | 21.29125 | 37153 ft | 543 kts | 149° |
| 2026-05-07 18:42 | 40.88037 | 21.35323 | 37156 ft | 547 kts | 148° |
| 2026-05-07 18:42 | 40.82394 | 21.41790 | 37155 ft | 549 kts | 144° |
| 2026-05-07 18:43 | 40.76668 | 21.48537 | 37147 ft | 547 kts | 145° |
| 2026-05-07 18:43 | 40.70943 | 21.55256 | 37145 ft | 548 kts | 144° |
| 2026-05-07 18:44 | 40.65264 | 21.61898 | 37142 ft | 548 kts | 145° |
| 2026-05-07 18:44 | 40.59546 | 21.68563 | 37142 ft | 546 kts | 145° |
| 2026-05-07 18:45 | 40.53875 | 21.75152 | 37147 ft | 544 kts | 144° |
| 2026-05-07 18:45 | 40.48168 | 21.81764 | 37145 ft | 544 kts | 145° |
| 2026-05-07 18:46 | 40.42485 | 21.88340 | 37147 ft | 544 kts | 144° |
| 2026-05-07 18:46 | 40.36773 | 21.94940 | 37139 ft | 544 kts | 145° |
| 2026-05-07 18:47 | 40.31118 | 22.01449 | 37136 ft | 544 kts | 145° |
| 2026-05-07 18:47 | 40.25432 | 22.07979 | 37126 ft | 544 kts | 145° |
| 2026-05-07 18:48 | 40.19747 | 22.14497 | 37131 ft | 544 kts | 145° |
| 2026-05-07 18:48 | 40.14007 | 22.21053 | 37138 ft | 545 kts | 145° |
| 2026-05-07 18:49 | 40.08299 | 22.27566 | 37135 ft | 546 kts | 144° |
| 2026-05-07 18:49 | 40.02546 | 22.34111 | 37125 ft | 548 kts | 144° |
| 2026-05-07 18:50 | 39.96807 | 22.40636 | 37119 ft | 548 kts | 144° |
| 2026-05-07 18:50 | 39.91045 | 22.47164 | 37113 ft | 547 kts | 144° |
| 2026-05-07 18:51 | 39.85309 | 22.53646 | 37109 ft | 548 kts | 144° |
| 2026-05-07 18:51 | 39.79553 | 22.60138 | 37103 ft | 549 kts | 144° |
| 2026-05-07 18:52 | 39.73734 | 22.66678 | 37108 ft | 550 kts | 145° |
| 2026-05-07 18:52 | 39.67934 | 22.73188 | 37114 ft | 552 kts | 144° |
| 2026-05-07 18:53 | 39.62114 | 22.79715 | 37109 ft | 551 kts | 144° |
| 2026-05-07 18:53 | 39.56315 | 22.86194 | 37105 ft | 551 kts | 144° |
| 2026-05-07 18:54 | 39.50480 | 22.92688 | 37110 ft | 552 kts | 144° |
| 2026-05-07 18:54 | 39.44664 | 22.99157 | 37124 ft | 554 kts | 144° |
| 2026-05-07 18:55 | 39.38812 | 23.05651 | 37115 ft | 553 kts | 143° |
| 2026-05-07 18:55 | 39.32972 | 23.12121 | 37099 ft | 553 kts | 143° |
| 2026-05-07 18:56 | 39.27108 | 23.18597 | 37097 ft | 552 kts | 144° |
| 2026-05-07 18:56 | 39.21242 | 23.25058 | 37094 ft | 552 kts | 143° |
| 2026-05-07 18:57 | 39.15417 | 23.31463 | 37091 ft | 553 kts | 143° |
| 2026-05-07 18:57 | 39.09528 | 23.37926 | 37092 ft | 553 kts | 144° |
| 2026-05-07 18:58 | 39.03675 | 23.44332 | 37093 ft | 553 kts | 143° |
| 2026-05-07 18:58 | 38.97776 | 23.50771 | 37088 ft | 554 kts | 144° |
| 2026-05-07 18:59 | 38.91919 | 23.57161 | 37087 ft | 552 kts | 143° |
| 2026-05-07 18:59 | 38.86091 | 23.63489 | 37090 ft | 553 kts | 143° |
| 2026-05-07 19:00 | 38.80213 | 23.69866 | 37092 ft | 553 kts | 143° |
| 2026-05-07 19:00 | 38.74298 | 23.76278 | 37096 ft | 553 kts | 143° |
| 2026-05-07 19:01 | 38.68395 | 23.82651 | 37100 ft | 553 kts | 143° |
| 2026-05-07 19:01 | 38.62517 | 23.88982 | 37099 ft | 554 kts | 143° |
| 2026-05-07 19:02 | 38.56661 | 23.95284 | 37099 ft | 553 kts | 144° |
| 2026-05-07 19:02 | 38.50752 | 24.01619 | 37101 ft | 554 kts | 143° |
| 2026-05-07 19:03 | 38.44828 | 24.07955 | 37102 ft | 553 kts | 143° |
| 2026-05-07 19:03 | 38.38932 | 24.14253 | 37105 ft | 554 kts | 143° |
| 2026-05-07 19:04 | 38.33071 | 24.20499 | 37104 ft | 553 kts | 143° |
| 2026-05-07 19:04 | 38.27135 | 24.26803 | 37110 ft | 553 kts | 142° |
| 2026-05-07 19:05 | 38.21199 | 24.33102 | 37110 ft | 554 kts | 142° |
| 2026-05-07 19:05 | 38.15238 | 24.39414 | 37114 ft | 555 kts | 142° |
| 2026-05-07 19:06 | 38.09329 | 24.45657 | 37125 ft | 555 kts | 143° |
| 2026-05-07 19:06 | 38.00406 | 24.55062 | 37137 ft | 557 kts | 142° |
| 2026-05-07 19:07 | 37.94439 | 24.61334 | 37131 ft | 555 kts | 142° |
| 2026-05-07 19:07 | 37.88519 | 24.67537 | 37117 ft | 557 kts | 143° |
| 2026-05-07 19:08 | 37.82645 | 24.73675 | 37112 ft | 558 kts | 142° |
| 2026-05-07 19:08 | 37.76641 | 24.79948 | 37115 ft | 557 kts | 143° |
| 2026-05-07 19:09 | 37.70674 | 24.86158 | 37114 ft | 558 kts | 142° |
| 2026-05-07 19:09 | 37.64681 | 24.92388 | 37116 ft | 558 kts | 142° |
| 2026-05-07 19:10 | 37.58717 | 24.98571 | 37121 ft | 559 kts | 142° |
| 2026-05-07 19:10 | 37.52726 | 25.04773 | 37127 ft | 558 kts | 142° |
| 2026-05-07 19:11 | 37.46712 | 25.10984 | 37129 ft | 558 kts | 142° |
| 2026-05-07 19:11 | 37.40737 | 25.17150 | 37129 ft | 557 kts | 142° |
| 2026-05-07 19:12 | 37.34729 | 25.23323 | 37130 ft | 557 kts | 142° |
| 2026-05-07 19:12 | 37.28717 | 25.29486 | 37127 ft | 557 kts | 142° |
| 2026-05-07 19:13 | 37.22715 | 25.35636 | 37132 ft | 557 kts | 142° |
| 2026-05-07 19:13 | 37.16716 | 25.41758 | 37138 ft | 557 kts | 141° |
| 2026-05-07 19:14 | 37.10716 | 25.47880 | 37140 ft | 558 kts | 142° |
| 2026-05-07 19:14 | 37.04670 | 25.54031 | 37148 ft | 557 kts | 141° |
| 2026-05-07 19:15 | 36.98687 | 25.60110 | 37151 ft | 557 kts | 141° |
| 2026-05-07 19:15 | 36.92665 | 25.66207 | 37141 ft | 557 kts | 142° |
| 2026-05-07 19:16 | 36.86599 | 25.72340 | 37138 ft | 557 kts | 143° |
| 2026-05-07 19:16 | 36.80630 | 25.78363 | 37142 ft | 558 kts | 142° |
| 2026-05-07 19:17 | 36.74592 | 25.84434 | 37141 ft | 557 kts | 141° |
| 2026-05-07 19:17 | 36.68558 | 25.90499 | 37142 ft | 558 kts | 142° |
| 2026-05-07 19:18 | 36.62533 | 25.96545 | 37143 ft | 559 kts | 142° |
| 2026-05-07 19:18 | 36.56470 | 26.02605 | 37145 ft | 559 kts | 142° |
| 2026-05-07 19:19 | 36.50413 | 26.08655 | 37147 ft | 558 kts | 142° |
| 2026-05-07 19:19 | 36.44355 | 26.14691 | 37146 ft | 557 kts | 141° |
| 2026-05-07 19:20 | 36.38280 | 26.20735 | 37140 ft | 557 kts | 142° |
| 2026-05-07 19:20 | 36.32255 | 26.26709 | 37144 ft | 557 kts | 141° |
| 2026-05-07 19:21 | 36.26188 | 26.32717 | 37147 ft | 558 kts | 141° |
| 2026-05-07 19:21 | 36.20134 | 26.38699 | 37147 ft | 557 kts | 141° |
| 2026-05-07 19:22 | 36.14046 | 26.44700 | 37143 ft | 559 kts | 141° |
| 2026-05-07 19:22 | 36.08007 | 26.50640 | 37144 ft | 557 kts | 142° |
| 2026-05-07 19:23 | 36.01870 | 26.56671 | 37146 ft | 558 kts | 142° |
| 2026-05-07 19:23 | 35.95829 | 26.62591 | 37149 ft | 557 kts | 141° |
| 2026-05-07 19:24 | 35.89763 | 26.68526 | 37146 ft | 557 kts | 142° |
| 2026-05-07 19:24 | 35.83675 | 26.74478 | 37141 ft | 557 kts | 142° |
| 2026-05-07 19:25 | 35.77536 | 26.80463 | 37144 ft | 557 kts | 142° |
| 2026-05-07 19:25 | 35.71415 | 26.86407 | 37139 ft | 557 kts | 142° |
| 2026-05-07 19:26 | 35.65346 | 26.92297 | 37137 ft | 557 kts | 141° |
| 2026-05-07 19:26 | 35.59262 | 26.98188 | 37144 ft | 556 kts | 142° |
| 2026-05-07 19:27 | 35.53184 | 27.04071 | 37148 ft | 556 kts | 142° |
| 2026-05-07 19:27 | 35.47068 | 27.09971 | 37142 ft | 556 kts | 141° |
| 2026-05-07 19:28 | 35.40974 | 27.15844 | 37151 ft | 557 kts | 141° |
| 2026-05-07 19:28 | 35.34869 | 27.21730 | 37150 ft | 556 kts | 142° |
| 2026-05-07 19:29 | 35.28755 | 27.27620 | 37147 ft | 556 kts | 141° |
| 2026-05-07 19:29 | 35.22663 | 27.33489 | 37148 ft | 557 kts | 141° |
| 2026-05-07 19:30 | 35.16550 | 27.39354 | 37149 ft | 557 kts | 141° |
| 2026-05-07 19:30 | 35.10433 | 27.45223 | 37149 ft | 556 kts | 140° |
| 2026-05-07 19:31 | 35.04325 | 27.51065 | 37151 ft | 557 kts | 141° |
| 2026-05-07 19:31 | 34.98220 | 27.56861 | 37150 ft | 556 kts | 141° |
| 2026-05-07 19:32 | 34.92068 | 27.62691 | 37150 ft | 557 kts | 141° |
| 2026-05-07 19:32 | 34.85866 | 27.68562 | 37146 ft | 557 kts | 142° |
| 2026-05-07 19:33 | 34.79738 | 27.74366 | 37145 ft | 557 kts | 142° |
| 2026-05-07 19:33 | 34.73556 | 27.80189 | 37141 ft | 557 kts | 141° |
| 2026-05-07 19:34 | 34.67425 | 27.85960 | 37144 ft | 556 kts | 141° |
| 2026-05-07 19:34 | 34.61255 | 27.91769 | 37144 ft | 557 kts | 141° |
| 2026-05-07 19:35 | 34.55101 | 27.97537 | 37150 ft | 557 kts | 141° |
| 2026-05-07 19:35 | 34.48920 | 28.03317 | 37146 ft | 557 kts | 141° |
| 2026-05-07 19:36 | 34.42746 | 28.09085 | 37146 ft | 557 kts | 141° |
| 2026-05-07 19:36 | 34.36604 | 28.14821 | 37145 ft | 557 kts | 141° |
| 2026-05-07 19:37 | 34.30461 | 28.20536 | 37145 ft | 557 kts | 141° |
| 2026-05-07 19:37 | 34.24324 | 28.26233 | 37149 ft | 557 kts | 141° |
| 2026-05-07 19:38 | 34.18141 | 28.31970 | 37152 ft | 557 kts | 140° |
| 2026-05-07 19:38 | 34.11959 | 28.37692 | 37153 ft | 556 kts | 140° |
| 2026-05-07 19:39 | 34.05817 | 28.43374 | 37153 ft | 558 kts | 140° |
| 2026-05-07 19:39 | 33.99634 | 28.49068 | 37153 ft | 557 kts | 140° |
| 2026-05-07 19:40 | 33.93438 | 28.54776 | 37154 ft | 558 kts | 141° |
| 2026-05-07 19:40 | 33.87262 | 28.60454 | 37147 ft | 558 kts | 140° |
| 2026-05-07 19:41 | 33.81057 | 28.66145 | 37150 ft | 557 kts | 141° |
| 2026-05-07 19:41 | 33.75270 | 28.71452 | 37148 ft | 558 kts | 141° |
| 2026-05-07 19:42 | 33.69243 | 28.77328 | 37152 ft | 556 kts | 135° |
| 2026-05-07 19:42 | 33.63603 | 28.83640 | 37148 ft | 554 kts | 134° |
| 2026-05-07 19:43 | 33.57995 | 28.89991 | 37146 ft | 556 kts | 134° |
| 2026-05-07 19:43 | 33.52372 | 28.96296 | 37151 ft | 555 kts | 133° |
| 2026-05-07 19:44 | 33.46692 | 29.02649 | 37152 ft | 555 kts | 134° |
| 2026-05-07 19:44 | 33.41060 | 29.08932 | 37153 ft | 555 kts | 133° |
| 2026-05-07 19:45 | 33.35420 | 29.15213 | 37148 ft | 554 kts | 134° |
| 2026-05-07 19:45 | 33.29766 | 29.21497 | 37148 ft | 554 kts | 134° |
| 2026-05-07 19:46 | 33.24109 | 29.27776 | 37149 ft | 554 kts | 134° |
| 2026-05-07 19:46 | 33.18470 | 29.34007 | 37148 ft | 553 kts | 133° |
| 2026-05-07 19:47 | 33.12842 | 29.40228 | 37151 ft | 552 kts | 134° |
| 2026-05-07 19:47 | 33.07193 | 29.46465 | 37140 ft | 551 kts | 133° |
| 2026-05-07 19:48 | 33.01562 | 29.52657 | 37143 ft | 550 kts | 134° |
| 2026-05-07 19:48 | 32.95958 | 29.58830 | 37144 ft | 551 kts | 133° |
| 2026-05-07 19:49 | 32.90310 | 29.65025 | 37141 ft | 551 kts | 134° |
| 2026-05-07 19:49 | 32.84658 | 29.71210 | 37137 ft | 551 kts | 133° |
| 2026-05-07 19:50 | 32.79040 | 29.77351 | 36748 ft | 546 kts | 134° |
| 2026-05-07 19:50 | 32.76271 | 29.80374 | 36451 ft | 546 kts | 133° |
| 2026-05-07 19:50 | 32.73486 | 29.83410 | 36149 ft | 543 kts | 134° |
| 2026-05-07 19:51 | 32.70693 | 29.86463 | 35847 ft | 546 kts | 134° |
| 2026-05-07 19:51 | 32.67885 | 29.89516 | 35484 ft | 545 kts | 134° |
| 2026-05-07 19:51 | 32.65097 | 29.92554 | 34894 ft | 544 kts | 134° |
| 2026-05-07 19:51 | 32.62311 | 29.95582 | 34313 ft | 545 kts | 134° |
| 2026-05-07 19:52 | 32.59517 | 29.98622 | 33760 ft | 546 kts | 135° |
| 2026-05-07 19:52 | 32.56711 | 30.01674 | 33238 ft | 547 kts | 135° |
| 2026-05-07 19:52 | 32.53932 | 30.04683 | 32732 ft | 542 kts | 136° |
| 2026-05-07 19:52 | 32.51181 | 30.07661 | 32216 ft | 535 kts | 136° |
| 2026-05-07 19:53 | 32.48451 | 30.10609 | 31707 ft | 529 kts | 136° |
| 2026-05-07 19:53 | 32.45741 | 30.13530 | 31195 ft | 524 kts | 136° |
| 2026-05-07 19:53 | 32.43061 | 30.16414 | 30691 ft | 521 kts | 136° |
| 2026-05-07 19:53 | 32.40368 | 30.19309 | 30241 ft | 516 kts | 137° |
| 2026-05-07 19:54 | 32.37535 | 30.21875 | 30116 ft | 515 kts | 150° |
| 2026-05-07 19:54 | 32.34338 | 30.23821 | 30179 ft | 508 kts | 155° |
| 2026-05-07 19:54 | 32.31167 | 30.25603 | 29809 ft | 507 kts | 155° |
| 2026-05-07 19:54 | 32.27970 | 30.27391 | 29028 ft | 511 kts | 155° |
| 2026-05-07 19:55 | 32.24771 | 30.29206 | 28244 ft | 511 kts | 155° |
| 2026-05-07 19:55 | 32.21570 | 30.31048 | 27462 ft | 511 kts | 154° |
| 2026-05-07 19:55 | 32.18406 | 30.32886 | 26690 ft | 510 kts | 154° |
| 2026-05-07 19:55 | 32.15216 | 30.34753 | 25907 ft | 508 kts | 154° |
| 2026-05-07 19:56 | 32.12071 | 30.36599 | 25132 ft | 507 kts | 154° |
| 2026-05-07 19:56 | 32.08928 | 30.38447 | 24359 ft | 504 kts | 154° |
| 2026-05-07 19:56 | 32.05793 | 30.40291 | 23592 ft | 504 kts | 154° |
| 2026-05-07 19:56 | 32.02668 | 30.42124 | 22835 ft | 502 kts | 154° |
| 2026-05-07 19:57 | 31.99575 | 30.43939 | 22253 ft | 493 kts | 154° |
| 2026-05-07 19:57 | 31.96525 | 30.45727 | 21758 ft | 489 kts | 154° |
| 2026-05-07 19:57 | 31.93508 | 30.47495 | 21262 ft | 485 kts | 154° |
| 2026-05-07 19:57 | 31.90470 | 30.49273 | 20764 ft | 482 kts | 154° |
| 2026-05-07 19:58 | 31.87470 | 30.51028 | 20433 ft | 479 kts | 154° |
| 2026-05-07 19:58 | 31.84529 | 30.52747 | 20073 ft | 479 kts | 154° |
| 2026-05-07 19:58 | 31.81546 | 30.54488 | 19705 ft | 476 kts | 154° |
| 2026-05-07 19:58 | 31.78597 | 30.56208 | 19340 ft | 473 kts | 154° |
| 2026-05-07 19:59 | 31.75616 | 30.57946 | 18971 ft | 472 kts | 154° |
| 2026-05-07 19:59 | 31.72714 | 30.59636 | 18608 ft | 469 kts | 154° |
| 2026-05-07 19:59 | 31.69775 | 30.61348 | 18237 ft | 467 kts | 154° |
| 2026-05-07 19:59 | 31.66866 | 30.63040 | 17877 ft | 465 kts | 154° |
| 2026-05-07 20:00 | 31.63985 | 30.64715 | 17506 ft | 463 kts | 154° |
| 2026-05-07 20:00 | 31.61108 | 30.66386 | 17144 ft | 461 kts | 154° |
| 2026-05-07 20:00 | 31.58218 | 30.68064 | 16783 ft | 457 kts | 154° |
| 2026-05-07 20:00 | 31.55365 | 30.69717 | 16413 ft | 454 kts | 154° |
| 2026-05-07 20:01 | 31.52550 | 30.71348 | 16048 ft | 452 kts | 154° |
| 2026-05-07 20:01 | 31.49737 | 30.72979 | 15633 ft | 451 kts | 154° |
| 2026-05-07 20:01 | 31.46943 | 30.74595 | 15150 ft | 446 kts | 154° |
| 2026-05-07 20:01 | 31.44155 | 30.76207 | 14669 ft | 444 kts | 154° |
| 2026-05-07 20:02 | 31.41386 | 30.77809 | 14178 ft | 441 kts | 154° |
| 2026-05-07 20:02 | 31.38655 | 30.79386 | 13696 ft | 437 kts | 154° |
| 2026-05-07 20:02 | 31.35945 | 30.80951 | 13217 ft | 434 kts | 154° |
| 2026-05-07 20:02 | 31.33241 | 30.82511 | 12745 ft | 432 kts | 153° |
| 2026-05-07 20:03 | 31.30535 | 30.84072 | 12271 ft | 430 kts | 153° |
| 2026-05-07 20:03 | 31.27856 | 30.85617 | 11779 ft | 426 kts | 153° |
| 2026-05-07 20:03 | 31.25199 | 30.87148 | 11308 ft | 423 kts | 153° |
| 2026-05-07 20:03 | 31.22557 | 30.88667 | 10830 ft | 420 kts | 153° |
| 2026-05-07 20:04 | 31.19984 | 30.90147 | 10370 ft | 412 kts | 153° |
| 2026-05-07 20:04 | 31.17442 | 30.91608 | 10134 ft | 389 kts | 153° |
| 2026-05-07 20:04 | 31.15128 | 30.92939 | 10116 ft | 354 kts | 153° |
| 2026-05-07 20:04 | 31.12994 | 30.94164 | 10117 ft | 328 kts | 153° |
| 2026-05-07 20:05 | 31.11002 | 30.95309 | 10121 ft | 310 kts | 153° |
| 2026-05-07 20:05 | 31.09087 | 30.96408 | 10017 ft | 302 kts | 153° |
| 2026-05-07 20:05 | 31.07195 | 30.97495 | 9881 ft | 300 kts | 153° |
| 2026-05-07 20:05 | 31.05319 | 30.98571 | 9651 ft | 300 kts | 153° |
| 2026-05-07 20:06 | 31.03469 | 30.99631 | 9409 ft | 297 kts | 153° |
| 2026-05-07 20:06 | 31.01615 | 31.00693 | 9167 ft | 295 kts | 153° |
| 2026-05-07 20:06 | 30.99776 | 31.01747 | 8918 ft | 292 kts | 153° |
| 2026-05-07 20:06 | 30.97945 | 31.02795 | 8680 ft | 291 kts | 153° |
| 2026-05-07 20:07 | 30.96134 | 31.03830 | 8432 ft | 289 kts | 152° |
| 2026-05-07 20:07 | 30.94321 | 31.04865 | 8191 ft | 289 kts | 152° |
| 2026-05-07 20:07 | 30.92529 | 31.05890 | 7936 ft | 287 kts | 152° |
| 2026-05-07 20:07 | 30.90723 | 31.06922 | 7693 ft | 286 kts | 152° |
| 2026-05-07 20:08 | 30.88920 | 31.07952 | 7444 ft | 286 kts | 152° |
| 2026-05-07 20:08 | 30.87200 | 31.08935 | 7203 ft | 285 kts | 152° |
| 2026-05-07 20:08 | 30.85381 | 31.09972 | 6946 ft | 283 kts | 152° |
| 2026-05-07 20:08 | 30.83616 | 31.10979 | 6699 ft | 281 kts | 152° |
| 2026-05-07 20:09 | 30.81867 | 31.11976 | 6453 ft | 280 kts | 152° |
| 2026-05-07 20:09 | 30.80117 | 31.12972 | 6210 ft | 278 kts | 152° |
| 2026-05-07 20:09 | 30.78369 | 31.13968 | 5958 ft | 277 kts | 152° |
| 2026-05-07 20:10 | 30.74928 | 31.15925 | 5461 ft | 274 kts | 151° |
| 2026-05-07 20:10 | 30.73217 | 31.16898 | 5217 ft | 273 kts | 150° |
| 2026-05-07 20:10 | 30.71497 | 31.17877 | 5014 ft | 270 kts | 150° |
| 2026-05-07 20:10 | 30.69802 | 31.18841 | 4998 ft | 271 kts | 150° |
| 2026-05-07 20:11 | 30.68112 | 31.19802 | 4994 ft | 271 kts | 150° |
| 2026-05-07 20:11 | 30.66422 | 31.20763 | 4992 ft | 271 kts | 150° |
| 2026-05-07 20:11 | 30.64730 | 31.21728 | 4991 ft | 270 kts | 150° |
| 2026-05-07 20:11 | 30.63033 | 31.22692 | 4989 ft | 270 kts | 150° |
| 2026-05-07 20:12 | 30.61342 | 31.23651 | 4991 ft | 271 kts | 150° |
| 2026-05-07 20:12 | 30.59643 | 31.24613 | 4987 ft | 271 kts | 150° |
| 2026-05-07 20:12 | 30.57938 | 31.25580 | 4986 ft | 271 kts | 150° |
| 2026-05-07 20:12 | 30.56239 | 31.26544 | 4987 ft | 271 kts | 150° |
| 2026-05-07 20:13 | 30.54546 | 31.27504 | 4988 ft | 271 kts | 150° |
| 2026-05-07 20:13 | 30.52827 | 31.28476 | 4986 ft | 271 kts | 150° |
| 2026-05-07 20:13 | 30.51140 | 31.29430 | 4980 ft | 271 kts | 150° |
| 2026-05-07 20:13 | 30.49445 | 31.30387 | 4972 ft | 262 kts | 151° |
| 2026-05-07 20:14 | 30.47811 | 31.31206 | 4968 ft | 253 kts | 156° |
| 2026-05-07 20:14 | 30.46142 | 31.31872 | 4882 ft | 254 kts | 160° |
| 2026-05-07 20:14 | 30.44413 | 31.32384 | 4758 ft | 254 kts | 165° |
| 2026-05-07 20:14 | 30.42670 | 31.32741 | 4634 ft | 254 kts | 168° |
| 2026-05-07 20:15 | 30.40918 | 31.33057 | 4528 ft | 253 kts | 168° |
| 2026-05-07 20:15 | 30.39190 | 31.33364 | 4481 ft | 253 kts | 168° |
| 2026-05-07 20:15 | 30.37416 | 31.33683 | 4477 ft | 254 kts | 168° |
| 2026-05-07 20:15 | 30.35671 | 31.34000 | 4473 ft | 254 kts | 168° |
| 2026-05-07 20:16 | 30.33920 | 31.34320 | 4482 ft | 255 kts | 168° |
| 2026-05-07 20:16 | 30.32162 | 31.34642 | 4477 ft | 255 kts | 168° |
| 2026-05-07 20:16 | 30.30418 | 31.34960 | 4475 ft | 244 kts | 168° |
| 2026-05-07 20:16 | 30.28786 | 31.35256 | 4563 ft | 233 kts | 167° |
| 2026-05-07 20:17 | 30.27177 | 31.35551 | 4522 ft | 231 kts | 167° |
| 2026-05-07 20:17 | 30.25597 | 31.35842 | 4495 ft | 231 kts | 168° |
| 2026-05-07 20:17 | 30.23997 | 31.36136 | 4468 ft | 231 kts | 168° |
| 2026-05-07 20:17 | 30.22375 | 31.36434 | 4352 ft | 231 kts | 168° |
| 2026-05-07 20:18 | 30.20788 | 31.36726 | 4239 ft | 231 kts | 167° |
| 2026-05-07 20:18 | 30.19182 | 31.37019 | 3936 ft | 232 kts | 167° |
| 2026-05-07 20:18 | 30.17581 | 31.37311 | 3565 ft | 232 kts | 167° |
| 2026-05-07 20:18 | 30.16025 | 31.37595 | 3208 ft | 231 kts | 167° |
| 2026-05-07 20:19 | 30.14426 | 31.37887 | 2985 ft | 225 kts | 167° |
| 2026-05-07 20:19 | 30.12864 | 31.38172 | 2977 ft | 220 kts | 167° |
| 2026-05-07 20:19 | 30.11444 | 31.38425 | 2977 ft | 198 kts | 166° |
| 2026-05-07 20:19 | 30.10103 | 31.38606 | 2788 ft | 189 kts | 174° |
| 2026-05-07 20:20 | 30.08836 | 31.38514 | 2566 ft | 180 kts | 186° |
| 2026-05-07 20:20 | 30.07688 | 31.38166 | 2466 ft | 166 kts | 198° |
| 2026-05-07 20:20 | 30.06592 | 31.37660 | 2478 ft | 167 kts | 201° |
| 2026-05-07 20:20 | 30.05519 | 31.37136 | 2483 ft | 167 kts | 201° |
| 2026-05-07 20:21 | 30.04442 | 31.36612 | 2484 ft | 167 kts | 201° |
| 2026-05-07 20:21 | 30.03371 | 31.36098 | 2488 ft | 167 kts | 201° |
| 2026-05-07 20:21 | 30.02289 | 31.35586 | 2482 ft | 166 kts | 200° |
| 2026-05-07 20:21 | 30.01203 | 31.35076 | 2483 ft | 166 kts | 200° |
| 2026-05-07 20:22 | 30.00120 | 31.34566 | 2483 ft | 167 kts | 200° |
| 2026-05-07 20:22 | 29.99048 | 31.34064 | 2489 ft | 167 kts | 200° |
| 2026-05-07 20:22 | 29.97963 | 31.33556 | 2483 ft | 167 kts | 200° |
| 2026-05-07 20:22 | 29.96879 | 31.33049 | 2483 ft | 167 kts | 201° |
| 2026-05-07 20:23 | 29.95804 | 31.32544 | 2480 ft | 168 kts | 200° |
| 2026-05-07 20:23 | 29.94711 | 31.32031 | 2479 ft | 167 kts | 200° |
| 2026-05-07 20:23 | 29.93627 | 31.31524 | 2477 ft | 167 kts | 202° |
| 2026-05-07 20:23 | 29.92619 | 31.30835 | 2467 ft | 167 kts | 220° |
| 2026-05-07 20:24 | 29.91837 | 31.29866 | 2471 ft | 165 kts | 240° |
| 2026-05-07 20:24 | 29.91337 | 31.28680 | 2473 ft | 160 kts | 259° |
| 2026-05-07 20:24 | 29.91158 | 31.27454 | 2468 ft | 154 kts | 276° |
| 2026-05-07 20:24 | 29.91272 | 31.26240 | 2467 ft | 148 kts | 293° |
| 2026-05-07 20:25 | 29.91629 | 31.25162 | 2469 ft | 142 kts | 308° |
| 2026-05-07 20:25 | 29.92188 | 31.24239 | 2469 ft | 136 kts | 322° |
| 2026-05-07 20:25 | 29.92881 | 31.23531 | 2468 ft | 130 kts | 335° |
| 2026-05-07 20:25 | 29.93667 | 31.23036 | 2467 ft | 126 kts | 346° |
| 2026-05-07 20:26 | 29.94506 | 31.22756 | 2472 ft | 123 kts | 356° |
| 2026-05-07 20:26 | 29.95362 | 31.22692 | 2473 ft | 123 kts | 7° |
| 2026-05-07 20:26 | 29.96206 | 31.22833 | 2476 ft | 123 kts | 20° |
| 2026-05-07 20:26 | 29.96913 | 31.23226 | 2477 ft | 125 kts | 33° |
| 2026-05-07 20:27 | 29.97613 | 31.23826 | 2474 ft | 125 kts | 39° |
| 2026-05-07 20:27 | 29.98252 | 31.24494 | 2473 ft | 125 kts | 43° |
| 2026-05-07 20:27 | 29.98878 | 31.25209 | 2476 ft | 125 kts | 44° |
| 2026-05-07 20:27 | 29.99483 | 31.25933 | 2477 ft | 125 kts | 45° |
| 2026-05-07 20:28 | 30.00079 | 31.26673 | 2481 ft | 125 kts | 46° |
| 2026-05-07 20:28 | 30.00667 | 31.27424 | 2484 ft | 125 kts | 46° |
| 2026-05-07 20:28 | 30.01242 | 31.28172 | 2477 ft | 125 kts | 46° |
| 2026-05-07 20:28 | 30.01815 | 31.28929 | 2484 ft | 125 kts | 46° |
| 2026-05-07 20:29 | 30.02386 | 31.29693 | 2479 ft | 125 kts | 46° |
| 2026-05-07 20:29 | 30.02959 | 31.30458 | 2434 ft | 126 kts | 46° |
| 2026-05-07 20:29 | 30.03525 | 31.31219 | 2267 ft | 125 kts | 46° |
| 2026-05-07 20:29 | 30.04088 | 31.31974 | 2108 ft | 124 kts | 47° |
| 2026-05-07 20:30 | 30.04660 | 31.32739 | 1949 ft | 124 kts | 47° |
| 2026-05-07 20:30 | 30.05222 | 31.33486 | 1791 ft | 124 kts | 47° |
| 2026-05-07 20:30 | 30.05781 | 31.34236 | 1631 ft | 123 kts | 46° |
| 2026-05-07 20:30 | 30.06347 | 31.34990 | 1464 ft | 123 kts | 46° |
| 2026-05-07 20:31 | 30.06900 | 31.35731 | 1305 ft | 123 kts | 46° |
| 2026-05-07 20:31 | 30.07457 | 31.36477 | 1143 ft | 122 kts | 46° |
| 2026-05-07 20:31 | 30.08012 | 31.37216 | 979 ft | 122 kts | 47° |
| 2026-05-07 20:31 | 30.08568 | 31.37960 | 821 ft | 122 kts | 47° |
| 2026-05-07 20:32 | 30.09115 | 31.38713 | 667 ft | 121 kts | 46° |
| 2026-05-07 20:32 | 30.09653 | 31.39447 | 552 ft | 122 kts | 41° |
| 2026-05-07 20:32 | 30.10229 | 31.40162 | 418 ft | 119 kts | 43° |
| 2026-05-07 20:32 | 30.10679 | 31.40748 | 385 ft | 58 kts | 44° |
| 2026-05-07 20:33 | 30.10779 | 31.40883 | 385 ft | 8 kts | 52° |
| 2026-05-07 20:33 | 30.10825 | 31.40948 | 385 ft | 12 kts | 49° |
| 2026-05-07 20:33 | 30.10941 | 31.41090 | 385 ft | 31 kts | 43° |
| 2026-05-07 20:33 | 30.11074 | 31.41258 | 385 ft | 27 kts | 51° |
| 2026-05-07 20:34 | 30.11195 | 31.41421 | 385 ft | 25 kts | 48° |
| 2026-05-07 20:34 | 30.11341 | 31.41559 | 385 ft | 27 kts | 26° |
| 2026-05-07 20:34 | 30.11503 | 31.41621 | 385 ft | 22 kts | 356° |
| 2026-05-07 20:34 | 30.11651 | 31.41586 | 385 ft | 21 kts | 343° |
| 2026-05-07 20:35 | 30.11793 | 31.41538 | 385 ft | 20 kts | 343° |
| 2026-05-07 20:35 | 30.11930 | 31.41485 | 385 ft | 20 kts | 342° |
| 2026-05-07 20:35 | 30.12065 | 31.41442 | 385 ft | 19 kts | 341° |
| 2026-05-07 20:35 | 30.12116 | 31.41330 | 385 ft | 16 kts | 258° |
| 2026-05-07 20:36 | 30.12083 | 31.41202 | 385 ft | 16 kts | 251° |
| 2026-05-07 20:36 | 30.12057 | 31.41076 | 385 ft | 15 kts | 278° |
| 2026-05-07 20:36 | 30.12129 | 31.41013 | 385 ft | 13 kts | 342° |
| 2026-05-07 20:36 | 30.12222 | 31.40980 | 385 ft | 13 kts | 343° |
| 2026-05-07 20:37 | 30.12314 | 31.40945 | 385 ft | 14 kts | 340° |
| 2026-05-07 20:37 | 30.12480 | 31.40885 | 385 ft | 28 kts | 342° |
| 2026-05-07 20:37 | 30.12659 | 31.40810 | 385 ft | 24 kts | 316° |
| 2026-05-07 20:37 | 30.12647 | 31.40692 | 385 ft | 12 kts | 252° |
| 2026-05-07 20:38 | 30.12638 | 31.40654 | 385 ft | 0 kts | 252° |